Time;durP1;ratioP1;P1;durP2;ratioP2;P2;SDS_P1;SDS_P2;PMS_P1;PMS_P2;Temp;Humidity;BMP_temperature;BMP_pressure;BME280_temperature;BME280_humidity;BME280_pressure;Samples;Min_cycle;Max_cycle;Signal;HPM_P1;HPM_P2
2023/12/13 00:01:48;;;;;;;;;;;18.60;58.90;;;;;;7394385;19;1512;-60
2023/12/13 00:04:13;;;;;;;;;;;18.60;58.80;;;;;;7391969;19;3118;-61
2023/12/13 00:06:39;;;;;;;;;;;18.60;58.90;;;;;;7391822;19;880;-60
2023/12/13 00:09:08;;;;;;;;;;;18.60;59.00;;;;;;7394869;19;1540;-60
2023/12/13 00:11:33;;;;;;;;;;;18.50;58.90;;;;;;7389714;19;3234;-60
2023/12/13 00:13:59;;;;;;;;;;;18.50;58.90;;;;;;7386247;19;2941;-61
2023/12/13 00:16:24;;;;;;;;;;;18.50;58.90;;;;;;7392925;19;1544;-60
2023/12/13 00:18:50;;;;;;;;;;;18.50;58.90;;;;;;7392934;19;3108;-60
2023/12/13 00:21:17;;;;;;;;;;;18.50;58.90;;;;;;7385486;19;2577;-60
2023/12/13 00:23:42;;;;;;;;;;;18.50;58.90;;;;;;7389557;19;1493;-60
2023/12/13 00:26:15;;;;;;;;;;;18.50;58.90;;;;;;7388028;19;3075;-60
2023/12/13 00:28:40;;;;;;;;;;;18.40;59.10;;;;;;7390673;19;832;-60
2023/12/13 00:31:05;;;;;;;;;;;18.40;58.90;;;;;;7392620;19;1846;-60
2023/12/13 00:33:33;;;;;;;;;;;18.40;58.90;;;;;;7388226;19;3221;-60
2023/12/13 00:35:58;;;;;;;;;;;18.40;59.00;;;;;;7395607;19;3320;-61
2023/12/13 00:38:24;;;;;;;;;;;18.40;59.00;;;;;;7390045;19;2968;-61
2023/12/13 00:40:49;;;;;;;;;;;18.40;59.00;;;;;;7394401;19;3403;-60
2023/12/13 00:43:14;;;;;;;;;;;18.30;58.80;;;;;;7392878;19;814;-60
2023/12/13 00:45:40;;;;;;;;;;;18.30;58.90;;;;;;7395576;19;2928;-61
2023/12/13 00:48:05;;;;;;;;;;;18.30;59.00;;;;;;7403113;19;3504;-60
2023/12/13 00:50:31;;;;;;;;;;;18.30;58.90;;;;;;7398222;19;1838;-60
2023/12/13 00:52:57;;;;;;;;;;;18.30;58.90;;;;;;7395331;19;3527;-60
2023/12/13 00:55:23;;;;;;;;;;;18.30;58.90;;;;;;7401118;19;3495;-60
2023/12/13 00:57:48;;;;;;;;;;;18.20;58.80;;;;;;7399618;19;962;-60
2023/12/13 01:00:14;;;;;;;;;;;18.20;58.80;;;;;;7392841;19;3095;-61
2023/12/13 01:02:40;;;;;;;;;;;18.20;58.90;;;;;;7401448;19;3135;-60
2023/12/13 01:05:06;;;;;;;;;;;18.20;58.80;;;;;;7397313;19;1879;-60
2023/12/13 01:07:32;;;;;;;;;;;18.20;58.80;;;;;;7399551;19;3125;-60
2023/12/13 01:09:57;;;;;;;;;;;18.20;58.80;;;;;;7398395;19;3537;-60
2023/12/13 01:12:22;;;;;;;;;;;18.20;58.80;;;;;;7398141;19;995;-60
2023/12/13 01:14:48;;;;;;;;;;;18.20;58.80;;;;;;7396606;19;3025;-61
2023/12/13 01:17:13;;;;;;;;;;;18.10;58.80;;;;;;7398079;19;2681;-60
2023/12/13 01:19:39;;;;;;;;;;;18.10;58.70;;;;;;7394905;19;2000;-61
2023/12/13 01:22:04;;;;;;;;;;;18.10;58.80;;;;;;7399569;19;3185;-61
2023/12/13 01:24:30;;;;;;;;;;;18.10;58.70;;;;;;7400349;19;3449;-60
2023/12/13 01:26:55;;;;;;;;;;;18.10;58.80;;;;;;7392348;19;2473;-60
2023/12/13 01:29:21;;;;;;;;;;;18.10;58.90;;;;;;7390729;19;3914;-61
2023/12/13 01:31:46;;;;;;;;;;;18.10;58.80;;;;;;7390688;19;2831;-60
2023/12/13 01:34:12;;;;;;;;;;;18.10;58.80;;;;;;7388198;19;3002;-61
2023/12/13 01:36:43;;;;;;;;;;;18.00;58.70;;;;;;7391387;19;3989;-60
2023/12/13 01:39:08;;;;;;;;;;;18.00;58.70;;;;;;7391057;19;1723;-60
2023/12/13 01:41:34;;;;;;;;;;;18.00;58.80;;;;;;7389914;19;1871;-60
2023/12/13 01:43:59;;;;;;;;;;;18.00;58.70;;;;;;7389789;19;3156;-61
2023/12/13 01:46:25;;;;;;;;;;;18.00;58.90;;;;;;7391528;19;2523;-61
2023/12/13 01:48:50;;;;;;;;;;;18.00;58.80;;;;;;7392716;19;1792;-60
2023/12/13 01:51:15;;;;;;;;;;;18.00;58.70;;;;;;7391494;19;3872;-61
2023/12/13 01:53:41;;;;;;;;;;;17.90;58.90;;;;;;7387042;19;2801;-61
2023/12/13 01:56:07;;;;;;;;;;;18.00;58.80;;;;;;7389762;19;3294;-61
2023/12/13 01:58:32;;;;;;;;;;;17.90;58.70;;;;;;7388683;19;3109;-60
2023/12/13 02:00:58;;;;;;;;;;;17.90;58.70;;;;;;7393008;19;1606;-60
2023/12/13 02:03:23;;;;;;;;;;;17.90;58.70;;;;;;7389154;19;1712;-60
2023/12/13 02:05:52;;;;;;;;;;;17.90;58.70;;;;;;7386039;19;3050;-60
2023/12/13 02:08:17;;;;;;;;;;;17.90;58.70;;;;;;7389853;19;1716;-60
2023/12/13 02:10:43;;;;;;;;;;;17.90;58.70;;;;;;7390573;19;1858;-60
2023/12/13 02:13:08;;;;;;;;;;;17.90;58.60;;;;;;7388607;19;3077;-60
2023/12/13 02:15:35;;;;;;;;;;;17.90;58.70;;;;;;7391892;19;2510;-60
2023/12/13 02:18:01;;;;;;;;;;;17.90;58.70;;;;;;7390403;19;1692;-60
2023/12/13 02:20:26;;;;;;;;;;;17.90;58.40;;;;;;7388540;19;2994;-60
2023/12/13 02:22:52;;;;;;;;;;;18.00;58.50;;;;;;7398772;19;1454;-60
2023/12/13 02:25:21;;;;;;;;;;;18.10;58.20;;;;;;7397125;19;1528;-59
2023/12/13 02:27:47;;;;;;;;;;;18.20;58.00;;;;;;7390660;19;3022;-60
2023/12/13 02:30:12;;;;;;;;;;;18.30;57.60;;;;;;7388329;19;1850;-60
2023/12/13 02:32:39;;;;;;;;;;;18.40;57.40;;;;;;7391524;19;1814;-62
2023/12/13 02:35:05;;;;;;;;;;;18.50;57.20;;;;;;7387289;19;2943;-60
2023/12/13 02:37:31;;;;;;;;;;;18.60;56.90;;;;;;7392134;19;1702;-60
2023/12/13 02:39:58;;;;;;;;;;;18.70;56.80;;;;;;7385719;19;1727;-61
2023/12/13 02:42:24;;;;;;;;;;;18.80;57.30;;;;;;7385999;19;3056;-60
2023/12/13 02:44:50;;;;;;;;;;;18.90;56.40;;;;;;7390930;19;1697;-60
2023/12/13 02:47:15;;;;;;;;;;;19.00;56.30;;;;;;7392969;19;1612;-60
2023/12/13 02:49:41;;;;;;;;;;;19.00;56.20;;;;;;7386336;19;3017;-60
2023/12/13 02:52:06;;;;;;;;;;;19.00;56.10;;;;;;7387739;19;1852;-60
2023/12/13 02:54:32;;;;;;;;;;;19.10;56.00;;;;;;7385987;19;3376;-60
2023/12/13 02:56:57;;;;;;;;;;;19.10;56.00;;;;;;7385848;19;2959;-60
2023/12/13 02:59:23;;;;;;;;;;;19.10;55.90;;;;;;7387271;19;1890;-60
2023/12/13 03:01:48;;;;;;;;;;;19.20;55.90;;;;;;7387913;19;1633;-60
2023/12/13 03:04:13;;;;;;;;;;;19.20;55.90;;;;;;7386742;19;2984;-60
2023/12/13 03:06:39;;;;;;;;;;;19.20;55.60;;;;;;7387386;19;1796;-60
2023/12/13 03:09:04;;;;;;;;;;;19.20;55.80;;;;;;7386319;19;1668;-61
2023/12/13 03:11:30;;;;;;;;;;;19.20;55.70;;;;;;7384131;19;3209;-60
2023/12/13 03:13:56;;;;;;;;;;;19.20;55.60;;;;;;7389845;19;1762;-60
2023/12/13 03:16:21;;;;;;;;;;;19.10;55.60;;;;;;7392587;19;1708;-60
2023/12/13 03:18:47;;;;;;;;;;;19.10;55.90;;;;;;7390289;19;3069;-60
2023/12/13 03:21:12;;;;;;;;;;;19.10;55.80;;;;;;7390841;19;2033;-60
2023/12/13 03:23:37;;;;;;;;;;;19.00;55.60;;;;;;7394136;19;2473;-60
2023/12/13 03:26:03;;;;;;;;;;;19.00;55.70;;;;;;7386583;19;3129;-60
2023/12/13 03:28:28;;;;;;;;;;;19.00;56.00;;;;;;7385320;19;1814;-60
2023/12/13 03:30:54;;;;;;;;;;;18.90;55.90;;;;;;7382611;19;1857;-61
2023/12/13 03:33:19;;;;;;;;;;;18.90;56.10;;;;;;7386429;19;3044;-61
2023/12/13 03:35:44;;;;;;;;;;;18.90;56.20;;;;;;7390504;19;1743;-60
2023/12/13 03:38:11;;;;;;;;;;;18.80;56.20;;;;;;7389561;19;1858;-60
2023/12/13 03:40:36;;;;;;;;;;;18.80;56.20;;;;;;7384447;19;3018;-60
2023/12/13 03:43:02;;;;;;;;;;;18.80;56.10;;;;;;7388196;19;1912;-60
2023/12/13 03:45:27;;;;;;;;;;;18.80;56.30;;;;;;7391356;19;3052;-60
2023/12/13 03:47:52;;;;;;;;;;;18.80;56.20;;;;;;7394026;19;4133;-60
2023/12/13 03:50:18;;;;;;;;;;;18.70;56.40;;;;;;7388963;19;1842;-60
2023/12/13 03:52:43;;;;;;;;;;;18.70;56.50;;;;;;7387162;19;2056;-60
2023/12/13 03:55:09;;;;;;;;;;;18.70;56.80;;;;;;7379544;19;3672;-61
2023/12/13 03:57:34;;;;;;;;;;;18.60;56.60;;;;;;7387931;19;2847;-60
2023/12/13 04:00:00;;;;;;;;;;;18.60;56.70;;;;;;7386347;19;1965;-60
2023/12/13 04:02:25;;;;;;;;;;;18.60;56.60;;;;;;7384890;19;3998;-60
2023/12/13 04:04:51;;;;;;;;;;;18.70;56.50;;;;;;7388222;19;1733;-60
2023/12/13 04:07:16;;;;;;;;;;;18.60;56.60;;;;;;7394687;19;1553;-59
2023/12/13 04:09:42;;;;;;;;;;;18.60;56.50;;;;;;7384159;19;2940;-60
2023/12/13 04:12:07;;;;;;;;;;;18.70;56.50;;;;;;7385081;19;1850;-60
2023/12/13 04:14:33;;;;;;;;;;;18.70;56.20;;;;;;7385979;19;1875;-60
2023/12/13 04:16:58;;;;;;;;;;;18.80;56.10;;;;;;7384815;19;3660;-60
2023/12/13 04:19:23;;;;;;;;;;;18.80;56.10;;;;;;7385565;19;3147;-60
2023/12/13 04:21:49;;;;;;;;;;;18.80;55.90;;;;;;7393742;19;1837;-60
2023/12/13 04:24:14;;;;;;;;;;;18.90;56.00;;;;;;7399744;19;3923;-60
2023/12/13 04:26:40;;;;;;;;;;;18.90;55.90;;;;;;7402311;19;1768;-60
2023/12/13 04:29:05;;;;;;;;;;;18.80;56.00;;;;;;7395351;19;1751;-60
2023/12/13 04:31:31;;;;;;;;;;;18.80;56.00;;;;;;7388644;19;3049;-60
2023/12/13 04:33:56;;;;;;;;;;;18.70;55.90;;;;;;7389980;19;2938;-60
2023/12/13 04:36:22;;;;;;;;;;;18.70;56.00;;;;;;7401407;19;1609;-60
2023/12/13 04:38:47;;;;;;;;;;;18.70;55.90;;;;;;7391603;19;3513;-60
2023/12/13 04:41:13;;;;;;;;;;;18.70;55.80;;;;;;7397513;19;1698;-60
2023/12/13 04:43:38;;;;;;;;;;;18.70;56.10;;;;;;7394211;19;1997;-60
2023/12/13 04:46:04;;;;;;;;;;;18.70;56.20;;;;;;7390111;19;3042;-60
2023/12/13 04:48:29;;;;;;;;;;;18.60;56.20;;;;;;7392520;19;1731;-60
2023/12/13 04:50:55;;;;;;;;;;;18.60;56.40;;;;;;7394968;19;1843;-60
2023/12/13 04:53:20;;;;;;;;;;;18.50;56.30;;;;;;7388129;19;3687;-60
2023/12/13 04:55:45;;;;;;;;;;;18.50;56.40;;;;;;7389236;19;2868;-60
2023/12/13 04:58:11;;;;;;;;;;;18.60;56.50;;;;;;7392635;19;2821;-60
2023/12/13 05:00:36;;;;;;;;;;;18.60;56.50;;;;;;7387957;19;3868;-60
2023/12/13 05:03:02;;;;;;;;;;;18.60;56.50;;;;;;7384928;19;2495;-60
2023/12/13 05:05:27;;;;;;;;;;;18.50;56.50;;;;;;7385363;19;3277;-60
2023/12/13 05:07:52;;;;;;;;;;;18.50;56.60;;;;;;7388977;19;3418;-60
2023/12/13 05:10:18;;;;;;;;;;;18.50;56.80;;;;;;7390741;19;1838;-60
2023/12/13 05:12:43;;;;;;;;;;;18.50;56.60;;;;;;7388874;19;2935;-60
2023/12/13 05:15:09;;;;;;;;;;;18.50;56.60;;;;;;7387231;19;3082;-60
2023/12/13 05:17:34;;;;;;;;;;;18.60;56.40;;;;;;7394172;19;1654;-60
2023/12/13 05:20:00;;;;;;;;;;;18.60;56.40;;;;;;7391023;19;2879;-60
2023/12/13 05:22:25;;;;;;;;;;;18.60;56.30;;;;;;7393874;19;3240;-60
2023/12/13 05:24:51;;;;;;;;;;;18.60;56.20;;;;;;7394848;19;1751;-60
2023/12/13 05:27:16;;;;;;;;;;;18.60;56.20;;;;;;7399142;19;3092;-60
2023/12/13 05:29:45;;;;;;;;;;;18.60;56.10;;;;;;7396096;19;3441;-60
2023/12/13 05:32:10;;;;;;;;;;;18.70;56.10;;;;;;7389999;19;1861;-60
2023/12/13 05:34:35;;;;;;;;;;;18.70;56.00;;;;;;7389653;19;2830;-60
2023/12/13 05:37:05;;;;;;;;;;;18.70;56.00;;;;;;7393695;19;2910;-61
2023/12/13 05:39:33;;;;;;;;;;;18.70;55.80;;;;;;7389989;19;1837;-60
2023/12/13 05:41:59;;;;;;;;;;;18.70;55.80;;;;;;7388670;19;3153;-60
2023/12/13 05:44:25;;;;;;;;;;;18.70;55.80;;;;;;7392115;19;2972;-60
2023/12/13 05:46:50;;;;;;;;;;;18.70;55.80;;;;;;7389503;19;1738;-60
2023/12/13 05:49:16;;;;;;;;;;;18.70;55.90;;;;;;7388751;19;3856;-60
2023/12/13 05:51:41;;;;;;;;;;;18.70;56.00;;;;;;7386857;19;2707;-60
2023/12/13 05:54:07;;;;;;;;;;;18.70;56.00;;;;;;7394929;19;1590;-60
2023/12/13 05:56:32;;;;;;;;;;;18.70;55.80;;;;;;7387974;19;2944;-60
2023/12/13 05:58:58;;;;;;;;;;;18.70;55.90;;;;;;7392389;19;3227;-60
2023/12/13 06:01:23;;;;;;;;;;;18.70;55.90;;;;;;7387520;19;2517;-61
2023/12/13 06:03:49;;;;;;;;;;;18.80;55.80;;;;;;7387347;19;3101;-59
2023/12/13 06:06:14;;;;;;;;;;;18.80;55.70;;;;;;7388479;19;2947;-60
2023/12/13 06:08:43;;;;;;;;;;;18.80;55.60;;;;;;7391778;19;1843;-60
2023/12/13 06:11:08;;;;;;;;;;;18.80;55.70;;;;;;7384067;19;3810;-60
2023/12/13 06:13:34;;;;;;;;;;;18.80;55.50;;;;;;7396953;19;1579;-60
2023/12/13 06:16:00;;;;;;;;;;;18.90;55.60;;;;;;7394935;19;1550;-60
2023/12/13 06:18:25;;;;;;;;;;;18.90;55.30;;;;;;7387768;19;3475;-60
2023/12/13 06:20:51;;;;;;;;;;;19.00;55.10;;;;;;7388806;19;1763;-61
2023/12/13 06:23:16;;;;;;;;;;;19.10;54.90;;;;;;7390264;19;1891;-60
2023/12/13 06:25:42;;;;;;;;;;;19.20;54.70;;;;;;7387309;19;2954;-60
2023/12/13 06:28:07;;;;;;;;;;;19.30;54.40;;;;;;7396559;19;1627;-60
2023/12/13 06:30:33;;;;;;;;;;;19.40;54.50;;;;;;7391167;19;1846;-61
2023/12/13 06:32:59;;;;;;;;;;;19.40;54.20;;;;;;7393825;19;3145;-60
2023/12/13 06:35:24;;;;;;;;;;;19.40;54.20;;;;;;7392846;19;1616;-62
2023/12/13 06:37:49;;;;;;;;;;;19.40;54.10;;;;;;7393846;19;1757;-60
2023/12/13 06:40:15;;;;;;;;;;;19.40;54.00;;;;;;7389004;19;3027;-61
2023/12/13 06:42:41;;;;;;;;;;;19.50;54.10;;;;;;7396796;19;1722;-61
2023/12/13 06:45:07;;;;;;;;;;;19.50;54.00;;;;;;7389739;19;2217;-60
2023/12/13 06:47:32;;;;;;;;;;;19.50;54.00;;;;;;7393024;19;3123;-60
2023/12/13 06:49:57;;;;;;;;;;;19.50;53.90;;;;;;7391224;19;2045;-60
2023/12/13 06:52:23;;;;;;;;;;;19.50;53.80;;;;;;7386479;19;1850;-60
2023/12/13 06:54:49;;;;;;;;;;;19.60;53.70;;;;;;7386257;19;3114;-60
2023/12/13 06:57:16;;;;;;;;;;;19.60;53.60;;;;;;7392014;19;1621;-61
2023/12/13 06:59:42;;;;;;;;;;;19.70;53.60;;;;;;7391138;19;1658;-60
2023/12/13 07:02:07;;;;;;;;;;;19.70;53.60;;;;;;7385788;19;3124;-60
2023/12/13 07:04:32;;;;;;;;;;;19.60;53.40;;;;;;7382243;19;2520;-60
2023/12/13 07:06:58;;;;;;;;;;;19.60;53.50;;;;;;7382420;19;3624;-60
2023/12/13 07:09:24;;;;;;;;;;;19.60;53.60;;;;;;7378474;19;3226;-60
2023/12/13 07:11:49;;;;;;;;;;;19.60;53.60;;;;;;7387898;19;1845;-60
2023/12/13 07:14:15;;;;;;;;;;;19.70;53.50;;;;;;7392473;19;1780;-60
2023/12/13 07:16:43;;;;;;;;;;;19.70;53.50;;;;;;7388072;19;2896;-60
2023/12/13 07:19:09;;;;;;;;;;;19.70;53.50;;;;;;7387830;19;2948;-60
2023/12/13 07:21:34;;;;;;;;;;;19.70;53.30;;;;;;7394459;19;1603;-60
2023/12/13 07:24:00;;;;;;;;;;;19.70;53.30;;;;;;7386751;19;3086;-60
2023/12/13 07:26:25;;;;;;;;;;;19.70;53.40;;;;;;7392399;19;1767;-61
2023/12/13 07:28:51;;;;;;;;;;;19.60;53.70;;;;;;7396303;19;1903;-60
2023/12/13 07:31:16;;;;;;;;;;;19.60;53.50;;;;;;7377935;19;3120;-60
2023/12/13 07:33:41;;;;;;;;;;;19.70;53.40;;;;;;7384888;19;3298;-60
2023/12/13 07:36:07;;;;;;;;;;;19.70;53.30;;;;;;7384252;19;2875;-61
2023/12/13 07:38:33;;;;;;;;;;;19.70;53.30;;;;;;7390515;19;3246;-61
2023/12/13 07:40:58;;;;;;;;;;;19.70;53.30;;;;;;7388929;19;816;-61
2023/12/13 07:43:24;;;;;;;;;;;19.70;53.20;;;;;;7396155;19;1453;-60
2023/12/13 07:45:52;;;;;;;;;;;19.70;53.20;;;;;;7391301;19;3277;-60
2023/12/13 07:48:23;;;;;;;;;;;19.70;53.30;;;;;;7395268;19;1603;-60
2023/12/13 07:50:49;;;;;;;;;;;19.60;53.30;;;;;;7391342;19;3239;-61
2023/12/13 07:53:14;;;;;;;;;;;19.60;53.40;;;;;;7391141;19;3219;-60
2023/12/13 07:55:39;;;;;;;;;;;19.50;53.30;;;;;;7397333;19;3136;-60
2023/12/13 07:58:05;;;;;;;;;;;19.50;53.40;;;;;;7402291;19;1602;-60
2023/12/13 08:00:30;;;;;;;;;;;19.50;53.30;;;;;;7396125;19;3168;-60
2023/12/13 08:02:56;;;;;;;;;;;19.50;53.30;;;;;;7400090;19;3826;-60
2023/12/13 08:05:23;;;;;;;;;;;19.50;53.40;;;;;;7391332;19;2730;-60
2023/12/13 08:07:48;;;;;;;;;;;19.50;53.20;;;;;;7394233;19;3623;-60
2023/12/13 08:10:13;;;;;;;;;;;19.50;53.30;;;;;;7395743;19;1841;-60
2023/12/13 08:12:42;;;;;;;;;;;19.60;53.20;;;;;;7399913;19;1013;-60
2023/12/13 08:15:09;;;;;;;;;;;19.60;53.00;;;;;;7396819;19;3153;-60
2023/12/13 08:17:34;;;;;;;;;;;19.70;53.00;;;;;;7402184;19;1748;-60
2023/12/13 08:20:00;;;;;;;;;;;19.70;52.80;;;;;;7401107;19;947;-60
2023/12/13 08:22:25;;;;;;;;;;;19.80;52.90;;;;;;7400094;19;3079;-60
2023/12/13 08:24:51;;;;;;;;;;;19.70;52.70;;;;;;7397963;19;3068;-60
2023/12/13 08:27:16;;;;;;;;;;;19.70;52.70;;;;;;7401431;19;1070;-60
2023/12/13 08:29:42;;;;;;;;;;;19.70;53.30;;;;;;7398335;19;3825;-60
2023/12/13 08:32:07;;;;;;;;;;;19.70;53.20;;;;;;7396063;19;2837;-60
2023/12/13 08:34:33;;;;;;;;;;;19.70;53.00;;;;;;7400360;19;3484;-60
2023/12/13 08:36:58;;;;;;;;;;;19.70;52.90;;;;;;7401753;19;3525;-60
2023/12/13 08:39:24;;;;;;;;;;;19.80;52.90;;;;;;7393845;19;2854;-60
2023/12/13 08:41:49;;;;;;;;;;;19.80;52.90;;;;;;7395876;19;4177;-60
2023/12/13 08:44:15;;;;;;;;;;;19.80;52.90;;;;;;7398324;19;3961;-60
2023/12/13 08:46:40;;;;;;;;;;;19.70;52.80;;;;;;7392548;19;3890;-60
2023/12/13 08:49:06;;;;;;;;;;;19.80;52.90;;;;;;7395993;19;3500;-60
2023/12/13 08:51:31;;;;;;;;;;;19.60;52.90;;;;;;7392674;19;3242;-60
2023/12/13 08:53:56;;;;;;;;;;;19.60;53.00;;;;;;7391013;19;3490;-60
2023/12/13 08:56:22;;;;;;;;;;;19.60;53.30;;;;;;7394273;19;3480;-60
2023/12/13 08:58:47;;;;;;;;;;;19.70;53.50;;;;;;7392595;19;3576;-60
2023/12/13 09:01:13;;;;;;;;;;;19.60;53.50;;;;;;7392420;19;3164;-60
2023/12/13 09:03:38;;;;;;;;;;;19.70;53.60;;;;;;7393979;19;3495;-60
2023/12/13 09:06:05;;;;;;;;;;;19.70;53.70;;;;;;7381005;19;3639;-60
2023/12/13 09:08:30;;;;;;;;;;;19.70;53.60;;;;;;7387295;19;3147;-60
2023/12/13 09:10:55;;;;;;;;;;;19.70;53.70;;;;;;7386379;19;3697;-62
2023/12/13 09:13:21;;;;;;;;;;;19.70;53.60;;;;;;7394964;19;3906;-60
2023/12/13 09:15:46;;;;;;;;;;;19.80;53.70;;;;;;7393010;19;3705;-60
2023/12/13 09:18:12;;;;;;;;;;;19.80;53.70;;;;;;7390614;19;3105;-60
2023/12/13 09:20:37;;;;;;;;;;;19.80;53.70;;;;;;7394844;19;3856;-59
2023/12/13 09:23:04;;;;;;;;;;;19.80;54.00;;;;;;7397318;19;1527;-61
2023/12/13 09:25:30;;;;;;;;;;;20.20;53.80;;;;;;7397659;19;1796;-60
2023/12/13 09:27:55;;;;;;;;;;;20.80;52.60;;;;;;7396367;19;3438;-61
2023/12/13 09:30:20;;;;;;;;;;;21.30;51.60;;;;;;7398174;19;1864;-61
2023/12/13 09:32:46;;;;;;;;;;;21.70;50.90;;;;;;7396875;19;3762;-60
2023/12/13 09:35:11;;;;;;;;;;;21.90;50.40;;;;;;7398893;19;3499;-61
2023/12/13 09:37:37;;;;;;;;;;;22.10;50.00;;;;;;7399815;19;1739;-61
2023/12/13 09:40:02;;;;;;;;;;;22.20;49.80;;;;;;7396912;19;2602;-61
2023/12/13 09:42:28;;;;;;;;;;;22.20;49.70;;;;;;7396518;19;2966;-60
2023/12/13 09:44:56;;;;;;;;;;;22.30;49.60;;;;;;7394868;19;4141;-61
2023/12/13 09:47:23;;;;;;;;;;;22.40;49.60;;;;;;7400388;19;1532;-62
2023/12/13 09:49:49;;;;;;;;;;;22.30;49.40;;;;;;7399861;19;3231;-60
2023/12/13 09:52:16;;;;;;;;;;;22.40;49.30;;;;;;7396289;19;1861;-61
2023/12/13 09:54:44;;;;;;;;;;;22.40;49.30;;;;;;7394794;19;2954;-60
2023/12/13 09:57:09;;;;;;;;;;;22.40;49.40;;;;;;7397477;19;3552;-61
2023/12/13 09:59:35;;;;;;;;;;;22.30;49.40;;;;;;7398126;19;1728;-61
2023/12/13 10:02:01;;;;;;;;;;;22.30;49.40;;;;;;7395971;19;3790;-61
2023/12/13 10:04:27;;;;;;;;;;;22.30;49.50;;;;;;7398411;19;3567;-60
2023/12/13 10:06:52;;;;;;;;;;;22.30;49.50;;;;;;7389678;19;2544;-61
2023/12/13 10:09:18;;;;;;;;;;;22.30;49.60;;;;;;7393827;19;2953;-62
2023/12/13 10:11:45;;;;;;;;;;;22.20;49.80;;;;;;7392270;19;3531;-60
2023/12/13 10:14:11;;;;;;;;;;;22.20;49.70;;;;;;7393181;19;4394;-60
2023/12/13 10:16:39;;;;;;;;;;;22.20;49.80;;;;;;7394777;19;3288;-62
2023/12/13 10:19:08;;;;;;;;;;;22.10;49.80;;;;;;7396996;19;1764;-60
2023/12/13 10:21:34;;;;;;;;;;;22.00;50.10;;;;;;7398672;19;1742;-61
2023/12/13 10:23:59;;;;;;;;;;;21.90;50.20;;;;;;7395216;19;3149;-61
2023/12/13 10:26:25;;;;;;;;;;;21.90;50.40;;;;;;7396370;19;3635;-60
2023/12/13 10:28:51;;;;;;;;;;;21.90;50.40;;;;;;7396242;19;1773;-61
2023/12/13 10:31:20;;;;;;;;;;;21.80;50.70;;;;;;7393795;19;3760;-61
2023/12/13 10:33:45;;;;;;;;;;;21.70;51.40;;;;;;7395709;19;3429;-60
2023/12/13 10:36:11;;;;;;;;;;;21.70;50.90;;;;;;7397090;19;1641;-61
2023/12/13 10:38:36;;;;;;;;;;;21.70;51.00;;;;;;7395721;19;3120;-62
2023/12/13 10:41:02;;;;;;;;;;;21.60;51.00;;;;;;7386622;19;4930;-61
2023/12/13 10:43:27;;;;;;;;;;;21.60;51.20;;;;;;7391903;19;5050;-61
2023/12/13 10:45:56;;;;;;;;;;;21.60;51.30;;;;;;7395100;19;3157;-59
2023/12/13 10:48:23;;;;;;;;;;;21.60;51.30;;;;;;7393146;19;5015;-58
2023/12/13 10:50:48;;;;;;;;;;;21.60;51.30;;;;;;7393976;19;4973;-59
2023/12/13 10:53:14;;;;;;;;;;;21.60;51.40;;;;;;7392486;19;5213;-60
2023/12/13 10:55:39;;;;;;;;;;;21.70;51.40;;;;;;7390845;19;4710;-60
2023/12/13 10:58:05;;;;;;;;;;;21.70;51.30;;;;;;7395408;19;6289;-59
2023/12/13 11:00:31;;;;;;;;;;;21.70;51.20;;;;;;7393024;19;4677;-60
2023/12/13 11:02:59;;;;;;;;;;;21.60;51.20;;;;;;7393581;19;6605;-60
2023/12/13 11:05:24;;;;;;;;;;;21.70;51.20;;;;;;7392131;19;5149;-61
2023/12/13 11:07:52;;;;;;;;;;;21.80;51.10;;;;;;7385286;19;4540;-60
2023/12/13 11:10:17;;;;;;;;;;;21.70;51.10;;;;;;7385130;19;6667;-61
2023/12/13 11:12:52;;;;;;;;;;;21.80;51.10;;;;;;7390515;19;4686;-59
2023/12/13 11:15:18;;;;;;;;;;;21.80;51.10;;;;;;7391839;19;4725;-60
2023/12/13 11:17:49;;;;;;;;;;;21.80;50.90;;;;;;7393037;19;4787;-59
2023/12/13 11:20:15;;;;;;;;;;;21.80;51.00;;;;;;7389050;19;4704;-60
2023/12/13 11:22:44;;;;;;;;;;;21.90;50.90;;;;;;7394578;19;2682;-61
2023/12/13 11:25:10;;;;;;;;;;;21.90;50.80;;;;;;7394010;19;1927;-60
2023/12/13 11:27:36;;;;;;;;;;;21.90;51.00;;;;;;7394008;19;2250;-59
2023/12/13 11:30:13;;;;;;;;;;;22.00;50.90;;;;;;7389194;19;1853;-61
2023/12/13 11:32:42;;;;;;;;;;;22.10;50.70;;;;;;7392842;19;1846;-60
2023/12/13 11:35:12;;;;;;;;;;;22.10;50.40;;;;;;7390548;19;5025;-60
2023/12/13 11:37:38;;;;;;;;;;;22.20;50.50;;;;;;7385658;19;2668;-59
2023/12/13 11:40:06;;;;;;;;;;;22.30;50.30;;;;;;7389839;19;1807;-60
2023/12/13 11:42:31;;;;;;;;;;;22.30;50.30;;;;;;7392952;19;1898;-59
2023/12/13 11:44:57;;;;;;;;;;;22.30;50.30;;;;;;7393996;19;1700;-60
2023/12/13 11:47:22;;;;;;;;;;;22.20;50.30;;;;;;7394293;19;2077;-61
2023/12/13 11:49:47;;;;;;;;;;;22.30;50.30;;;;;;7393256;19;1630;-60
2023/12/13 11:52:13;;;;;;;;;;;22.20;50.40;;;;;;7391466;19;6510;-59
2023/12/13 11:54:39;;;;;;;;;;;22.20;50.40;;;;;;7392010;19;3000;-60
2023/12/13 11:57:14;;;;;;;;;;;22.20;50.60;;;;;;7396867;19;2159;-61
2023/12/13 11:59:40;;;;;;;;;;;22.10;50.60;;;;;;7392420;19;5107;-60
2023/12/13 12:02:06;;;;;;;;;;;22.10;50.60;;;;;;7396278;19;1739;-61
2023/12/13 12:04:31;;;;;;;;;;;22.20;50.60;;;;;;7389678;19;4791;-59
2023/12/13 12:06:57;;;;;;;;;;;22.10;50.60;;;;;;7392534;19;4844;-60
2023/12/13 12:09:23;;;;;;;;;;;22.10;50.90;;;;;;7386121;19;2566;-60
2023/12/13 12:11:52;;;;;;;;;;;22.00;50.80;;;;;;7391622;19;1853;-61
2023/12/13 12:14:17;;;;;;;;;;;22.10;50.90;;;;;;7389899;19;4803;-62
2023/12/13 12:16:43;;;;;;;;;;;22.10;51.00;;;;;;7387767;19;4659;-60
2023/12/13 12:19:09;;;;;;;;;;;22.10;50.90;;;;;;7392306;19;3112;-60
2023/12/13 12:21:35;;;;;;;;;;;22.10;50.90;;;;;;7392165;19;2259;-60
2023/12/13 12:24:00;;;;;;;;;;;22.00;50.90;;;;;;7394444;19;2903;-60
2023/12/13 12:26:26;;;;;;;;;;;22.00;51.00;;;;;;7392182;19;1941;-62
2023/12/13 12:28:51;;;;;;;;;;;22.00;51.10;;;;;;7394241;19;1734;-60
2023/12/13 12:31:18;;;;;;;;;;;21.90;51.20;;;;;;7389090;19;1883;-59
2023/12/13 12:33:44;;;;;;;;;;;22.00;51.30;;;;;;7389898;19;4637;-59
2023/12/13 12:36:09;;;;;;;;;;;22.00;51.30;;;;;;7388184;19;4734;-60
2023/12/13 12:38:35;;;;;;;;;;;22.00;51.30;;;;;;7392003;19;3622;-60
2023/12/13 12:41:00;;;;;;;;;;;22.00;51.20;;;;;;7395058;19;2802;-61
2023/12/13 12:43:25;;;;;;;;;;;22.00;51.00;;;;;;7398691;19;4722;-61
2023/12/13 12:45:51;;;;;;;;;;;22.00;51.00;;;;;;7398255;19;2538;-61
2023/12/13 12:48:16;;;;;;;;;;;22.00;51.10;;;;;;7398349;19;2019;-61
2023/12/13 12:50:42;;;;;;;;;;;22.00;50.90;;;;;;7399531;19;3044;-60
2023/12/13 12:53:07;;;;;;;;;;;22.00;51.00;;;;;;7399509;19;4677;-60
2023/12/13 12:55:33;;;;;;;;;;;22.00;51.00;;;;;;7400110;19;1798;-60
2023/12/13 12:57:58;;;;;;;;;;;22.00;50.90;;;;;;7400418;19;3028;-60
2023/12/13 13:00:25;;;;;;;;;;;22.00;51.00;;;;;;7396398;19;2766;-60
2023/12/13 13:02:52;;;;;;;;;;;22.00;51.00;;;;;;7395763;19;2938;-60
2023/12/13 13:05:18;;;;;;;;;;;22.00;50.90;;;;;;7397110;19;4115;-60
2023/12/13 13:07:43;;;;;;;;;;;22.10;50.80;;;;;;7399347;19;2719;-60
2023/12/13 13:10:11;;;;;;;;;;;22.10;50.70;;;;;;7385180;19;3917;-60
2023/12/13 13:12:38;;;;;;;;;;;22.20;50.70;;;;;;7389232;19;2967;-60
2023/12/13 13:15:07;;;;;;;;;;;22.20;50.50;;;;;;7391742;19;3604;-60
2023/12/13 13:17:32;;;;;;;;;;;22.20;50.60;;;;;;7392253;19;3088;-60
2023/12/13 13:19:58;;;;;;;;;;;22.20;50.80;;;;;;7389215;19;3822;-60
2023/12/13 13:22:23;;;;;;;;;;;22.30;50.60;;;;;;7397929;19;3062;-60
2023/12/13 13:24:49;;;;;;;;;;;22.20;50.40;;;;;;7392603;19;3874;-62
2023/12/13 13:27:14;;;;;;;;;;;22.20;50.50;;;;;;7393393;19;2717;-60
2023/12/13 13:29:40;;;;;;;;;;;22.20;50.60;;;;;;7395682;19;3048;-61
2023/12/13 13:32:06;;;;;;;;;;;22.10;50.60;;;;;;7392706;19;2724;-60
2023/12/13 13:34:32;;;;;;;;;;;22.10;50.70;;;;;;7399475;19;2651;-60
2023/12/13 13:36:57;;;;;;;;;;;22.00;50.70;;;;;;7399650;19;2390;-60
2023/12/13 13:39:22;;;;;;;;;;;22.00;50.90;;;;;;7387008;19;4533;-62
2023/12/13 13:41:48;;;;;;;;;;;21.90;51.10;;;;;;7395740;19;4531;-61
2023/12/13 13:44:13;;;;;;;;;;;21.90;51.70;;;;;;7398284;19;1815;-62
2023/12/13 13:46:39;;;;;;;;;;;21.90;51.60;;;;;;7399080;19;2570;-63
2023/12/13 13:49:04;;;;;;;;;;;22.00;51.50;;;;;;7396662;19;1724;-62
2023/12/13 13:51:30;;;;;;;;;;;22.00;51.20;;;;;;7394546;19;4625;-61
2023/12/13 13:53:56;;;;;;;;;;;22.00;51.20;;;;;;7396404;19;3771;-61
2023/12/13 13:56:21;;;;;;;;;;;22.00;51.30;;;;;;7400156;19;2104;-61
2023/12/13 13:58:48;;;;;;;;;;;22.00;51.00;;;;;;7397303;19;2869;-61
2023/12/13 14:01:14;;;;;;;;;;;22.00;51.00;;;;;;7396737;19;1384;-62
2023/12/13 14:03:39;;;;;;;;;;;22.10;50.90;;;;;;7399150;19;1631;-61
2023/12/13 14:06:05;;;;;;;;;;;22.20;50.90;;;;;;7399010;19;1333;-62
2023/12/13 14:08:30;;;;;;;;;;;22.20;50.80;;;;;;7392993;19;2859;-62
2023/12/13 14:10:57;;;;;;;;;;;22.10;50.90;;;;;;7387794;19;4422;-61
2023/12/13 14:13:23;;;;;;;;;;;22.20;50.90;;;;;;7385725;19;3726;-62
2023/12/13 14:15:49;;;;;;;;;;;22.20;50.80;;;;;;7386453;19;4736;-63
2023/12/13 14:18:18;;;;;;;;;;;22.30;50.80;;;;;;7398680;19;3594;-61
2023/12/13 14:20:44;;;;;;;;;;;22.30;51.00;;;;;;7396914;19;3271;-61
2023/12/13 14:23:10;;;;;;;;;;;22.20;50.90;;;;;;7395153;19;4690;-61